Flight Track Log - Related Links

Times and Time Zones

All times are in EDT time to prevent confusion due to time zone crossing. See the SWA2139 flight status page for this flight to view local times or setup timezone preferences in your user account.

Time Position Orientation Groundspeed Altitude Reporting Facility
EDT Latitude Longitude Course Direction KTS MPH feet Rate Location/Type
Fri 08:35:00 AM 30.3178 -97.6908 278° West 206 237 6,100  Level Houston Center
Fri 08:36:01 AM 30.3842 -97.6961 356° North 230 265 9,900 2,927 Climbing Houston Center
Fri 08:37:03 AM 30.4453 -97.7328 333° Northwest 263 303 12,100 2,634 Climbing Houston Center
Fri 08:38:04 AM 30.4542 -97.8378 276° West 322 371 15,300 2,927 Climbing Houston Center
Fri 08:39:00 AM 30.4167 -97.9288 270° West  Level FlightAware Approximate
Fri 08:39:06 AM 30.4675 -97.9436 278° West 328 377 18,100  Level Houston Center
Fri 08:40:00 AM 30.4214 -98.0401 278° West  Level FlightAware Approximate
Fri 08:40:07 AM 30.4911 -98.0519 284° West 340 391 20,800  Level Houston Center
Fri 08:41:09 AM 30.5114 -98.1644 282° West 350 403 23,400 2,244 Climbing Houston Center
Fri 08:42:10 AM 30.5311 -98.2819 281° West 363 418 25,400 2,066 Climbing Houston Center
Fri 08:43:11 AM 30.5544 -98.4242 281° West 377 434 27,600 2,439 Climbing Houston Center
Fri 08:44:13 AM 30.5747 -98.5442 281° West 378 435 30,400 2,439 Climbing Houston Center
Fri 08:45:14 AM 30.5950 -98.6572 282° West 359 413 32,600 1,805 Climbing Houston Center
Fri 08:46:16 AM 30.6136 -98.7703 281° West 355 409 34,100 1,659 Climbing Houston Center
Fri 08:47:17 AM 30.6328 -98.8822 281° West 350 403 36,000 927 Climbing Houston Center
Fri 08:48:19 AM 30.6533 -98.9914 282° West 344 396 36,000  Level Houston Center
Fri 08:49:20 AM 30.6703 -99.0997 280° West 340 391 36,000  Level Houston Center
Fri 08:50:22 AM 30.6875 -99.2019 281° West 339 390 36,000  Level Houston Center
Fri 08:51:23 AM 30.7056 -99.3069 281° West 333 383 36,000  Level Houston Center
Fri 08:52:25 AM 30.7256 -99.4317 281° West 330 380 36,000  Level Houston Center
Fri 08:53:26 AM 30.7425 -99.5347 281° West 328 377 36,000  Level Houston Center
Fri 08:54:28 AM 30.7606 -99.6375 282° West 327 376 36,000  Level Houston Center
Fri 08:55:30 AM 30.7775 -99.7439 281° West 333 383 36,000  Level Houston Center
Fri 08:56:31 AM 30.7950 -99.8506 281° West 337 388 36,000  Level Houston Center
Fri 08:57:33 AM 30.8119 -99.9589 280° West 341 392 36,000  Level Houston Center
Fri 08:58:34 AM 30.8294 -100.0669 281° West 342 394 36,000  Level Houston Center
Fri 08:59:36 AM 30.8503 -100.1956 281° West 340 391 36,000  Level Houston Center
Fri 09:00:37 AM 30.8667 -100.3006 280° West 335 386 36,000  Level Houston Center
Fri 09:01:39 AM 30.8836 -100.4078 280° West 339 390 36,000  Level Houston Center
Fri 09:02:40 AM 30.9000 -100.5119 280° West 332 382 36,000  Level Houston Center
Fri 09:03:42 AM 30.9169 -100.6194 280° West 337 388 36,000  Level Houston Center
Fri 09:04:44 AM 30.9339 -100.7253 281° West 335 386 36,000  Level Houston Center
Fri 09:05:45 AM 30.9489 -100.8331 279° West 340 391 36,000  Level Houston Center
Fri 09:06:47 AM 30.9700 -100.9617 281° West 340 391 36,000  Level Houston Center
Fri 09:07:49 AM 30.9856 -101.0708 279° West 342 394 36,000  Level Houston Center
Fri 09:08:50 AM 31.0039 -101.1775 281° West 340 391 36,000  Level Houston Center
Fri 09:09:52 AM 31.0206 -101.2850 280° West 339 390 36,000  Level Houston Center
Fri 09:10:54 AM 31.0375 -101.3978 280° West 340 391 36,000  Level Houston Center
Fri 09:11:21 AM 31.0417 -101.4406 276° West 337 388 36,000  Level Albuquerque Center
Fri 09:12:22 AM 31.0586 -101.5503 280° West 341 392 36,000  Level Albuquerque Center
Fri 09:13:22 AM 31.0736 -101.6594 279° West 342 394 36,000  Level Albuquerque Center
Fri 09:14:23 AM 31.0900 -101.7692 280° West 342 394 36,000  Level Albuquerque Center
Fri 09:15:24 AM 31.1092 -101.9008 280° West 343 395 36,000  Level Albuquerque Center
Fri 09:16:24 AM 31.1217 -101.9986 279° West 354 407 36,000  Level Albuquerque Center
Fri 09:17:25 AM 31.1378 -102.1075 280° West 346 398 36,000  Level Albuquerque Center
Fri 09:18:26 AM 31.1539 -102.2194 280° West 346 398 36,000  Level Albuquerque Center
Fri 09:19:27 AM 31.1706 -102.3289 280° West 345 397 36,000  Level Albuquerque Center
Fri 09:20:27 AM 31.1861 -102.4411 279° West 348 400 36,000  Level Albuquerque Center
Fri 09:21:28 AM 31.2039 -102.5742 279° West 345 397 36,000  Level Albuquerque Center
Fri 09:22:29 AM 31.2200 -102.6850 280° West 343 395 36,000  Level Albuquerque Center
Fri 09:23:30 AM 31.2350 -102.7978 279° West 346 398 36,000  Level Albuquerque Center
Fri 09:24:31 AM 31.2506 -102.9094 279° West 348 400 36,000  Level Albuquerque Center
Fri 09:25:31 AM 31.2661 -103.0228 279° West 351 404 36,000  Level Albuquerque Center
Fri 09:26:32 AM 31.2811 -103.1350 279° West 351 404 36,000  Level Albuquerque Center
Fri 09:27:33 AM 31.2961 -103.2492 279° West 354 407 36,000  Level Albuquerque Center
Fri 09:28:34 AM 31.3119 -103.3608 279° West 351 404 36,000  Level Albuquerque Center
Fri 09:29:35 AM 31.3264 -103.4739 279° West 351 404 36,000  Level Albuquerque Center
Fri 09:30:36 AM 31.3414 -103.5867 279° West 352 405 36,000  Level Albuquerque Center
Fri 09:31:37 AM 31.3556 -103.7003 278° West 351 404 36,000  Level Albuquerque Center
Fri 09:32:37 AM 31.3711 -103.8197 279° West 352 405 36,000  Level Albuquerque Center
Fri 09:33:38 AM 31.3853 -103.9331 278° West 352 405 36,000  Level Albuquerque Center
Fri 09:34:39 AM 31.4014 -104.0458 280° West 353 406 36,000  Level Albuquerque Center
Fri 09:35:40 AM 31.4153 -104.1597 278° West 354 407 36,000  Level Albuquerque Center
Fri 09:36:41 AM 31.4294 -104.2728 278° West 354 407 36,000  Level Albuquerque Center
Fri 09:37:42 AM 31.4433 -104.3864 278° West 354 407 36,000  Level Albuquerque Center
Fri 09:38:43 AM 31.4581 -104.5011 279° West 356 410 36,000  Level Albuquerque Center
Fri 09:39:44 AM 31.4725 -104.6383 277° West 357 411 36,000  Level Albuquerque Center
Fri 09:40:45 AM 31.4836 -104.7528 277° West 356 410 36,000 -98 Level Albuquerque Center
Fri 09:41:46 AM 31.4967 -104.8675 278° West 357 411 35,800 -1,623 Descending Albuquerque Center
Fri 09:42:47 AM 31.5083 -104.9819 277° West 356 410 32,700 -3,246 Descending Albuquerque Center
Fri 09:43:48 AM 31.5200 -105.0994 277° West 362 417 29,200 -3,415 Descending Albuquerque Center
Fri 09:44:50 AM 31.5317 -105.2186 277° West 368 423 25,700 -3,073 Descending Albuquerque Center
Fri 09:45:51 AM 31.5436 -105.3383 277° West 372 428 22,900 -3,034 Descending Albuquerque Center
Fri 09:46:19 AM 31.5481 -105.4131 274° West 375 432 21,200 -2,897 Descending Albuquerque Center
Fri 09:46:49 AM 31.5536 -105.4642 277° West 380 437 20,100 -2,106 Descending Albuquerque Center
Fri 09:47:53 AM 31.5681 -105.5864 278° West 384 442 17,900 -2,832 Descending Albuquerque Center
Fri 09:48:54 AM 31.6103 -105.7189 291° West 362 417 14,200 -3,194 Descending Albuquerque Center
Fri 09:49:57 AM 31.6428 -105.8258 290° West 350 403 11,300 -1,869 Descending Albuquerque Center
Fri 09:50:56 AM 31.6761 -105.9203 293° West 311 358 10,400 -850 Descending Albuquerque Center
Fri 09:51:57 AM 31.7050 -106.0050 292° West 282 325 9,600 -1,024 Descending Albuquerque Center
Fri 09:52:59 AM 31.7342 -106.0944 291° West 291 335 8,300 -1,171 Descending Albuquerque Center
Fri 09:54:00 AM 31.7608 -106.1764 291° West 271 312 7,200 -992 Descending Albuquerque Center
Fri 09:55:00 AM 31.7822 -106.2453 290° West 220 253 6,300 -1,091 Descending Albuquerque Center
Fri 09:56:01 AM 31.7967 -106.3017 287° West 167 192 5,000 -992 Descending Albuquerque Center
Fri 09:57:01 AM 31.8025 -106.3453 279° West 129 148 4,300 -700 Descending Albuquerque Center
Fri 09:59:00 AM 31.8000 -106.3667 270° West  Level FlightAware Approximate
Fri 10:06:00 AM 31.8072 -106.3764 270° West  Level Estimated
Fri 10:07:00 AM 31.8072 -106.3764 270° West  Level Estimated
Fri 10:08:00 AM 31.8072 -106.3764 270° West  Level Estimated
Fri 10:09:00 AM 31.8072 -106.3764 270° West  Level Estimated

Login

Don't have an account? Register now (free) for customized features, flight alerts, and more!